createdAt,value
2019-03-22T00:00:59.243Z,42.10
2019-03-22T00:03:29.450Z,41.53
2019-03-22T00:05:59.567Z,42.60
2019-03-22T00:08:29.740Z,40.17
2019-03-22T00:10:59.958Z,41.43
2019-03-22T00:13:30.119Z,42.53
2019-03-22T00:16:00.285Z,43.60
2019-03-22T00:18:30.422Z,41.87
2019-03-22T00:21:00.587Z,43.67
2019-03-22T00:23:30.757Z,46.43
2019-03-22T00:26:00.893Z,45.07
2019-03-22T00:28:31.065Z,46.77
2019-03-22T00:31:01.207Z,45.20
2019-03-22T00:33:31.361Z,45.57
2019-03-22T00:36:01.558Z,50.57
2019-03-22T00:38:31.702Z,49.43
2019-03-22T00:41:02.834Z,45.67
2019-03-22T00:43:32.985Z,50.57
2019-03-22T00:46:03.127Z,50.47
2019-03-22T00:48:33.254Z,48.57
2019-03-22T00:51:03.380Z,45.87
2019-03-22T00:53:33.577Z,46.67
2019-03-22T00:56:03.949Z,46.10
2019-03-22T00:58:34.087Z,47.03
2019-03-22T01:01:04.352Z,52.33
2019-03-22T01:03:34.514Z,54.87
2019-03-22T01:06:04.744Z,59.03
2019-03-22T01:08:34.930Z,57.80
2019-03-22T01:11:05.175Z,57.43
2019-03-22T01:13:35.311Z,54.90
2019-03-22T01:16:05.474Z,59.37
2019-03-22T01:18:35.619Z,57.90
2019-03-22T01:21:05.761Z,57.07
2019-03-22T01:23:35.914Z,56.53
2019-03-22T01:26:06.120Z,64.07
2019-03-22T01:28:36.306Z,64.50
2019-03-22T01:31:06.458Z,62.27
2019-03-22T01:33:36.608Z,66.13
2019-03-22T01:36:06.759Z,61.27
2019-03-22T01:38:36.920Z,65.10
2019-03-22T01:41:07.126Z,55.40
2019-03-22T01:43:37.298Z,56.83
2019-03-22T01:46:07.438Z,55.17
2019-03-22T01:48:37.809Z,64.90
2019-03-22T01:51:08.050Z,61.87
2019-03-22T01:53:38.198Z,56.30
2019-03-22T01:56:08.354Z,59.53
2019-03-22T01:58:38.806Z,63.20
2019-03-22T02:01:09.046Z,61.03
2019-03-22T02:03:40.169Z,61.93
2019-03-22T02:06:10.394Z,64.20
2019-03-22T02:08:40.554Z,66.30
2019-03-22T02:11:10.702Z,65.13
2019-03-22T02:13:40.894Z,61.73
2019-03-22T02:16:11.102Z,55.30
2019-03-22T02:18:41.265Z,66.03
2019-03-22T02:21:11.403Z,62.27
2019-03-22T02:23:41.634Z,65.43
2019-03-22T02:26:11.805Z,62.90
2019-03-22T02:28:42.946Z,66.63
2019-03-22T02:31:13.235Z,60.53
2019-03-22T02:33:43.413Z,61.33
2019-03-22T02:36:13.568Z,59.73
2019-03-22T02:38:43.966Z,64.07
2019-03-22T02:41:14.176Z,61.07
2019-03-22T02:43:44.334Z,63.90
2019-03-22T02:46:14.466Z,66.67
2019-03-22T02:48:44.642Z,69.17
2019-03-22T02:51:14.787Z,63.67
2019-03-22T02:53:45.003Z,60.17
2019-03-22T02:56:15.323Z,59.43
2019-03-22T02:58:45.634Z,64.20
2019-03-22T03:01:15.881Z,70.77
2019-03-22T03:03:46.149Z,69.03
2019-03-22T03:06:16.369Z,69.60
2019-03-22T03:08:46.590Z,69.33
2019-03-22T03:11:16.755Z,70.97
2019-03-22T03:13:46.932Z,67.83
2019-03-22T03:16:17.090Z,79.20
2019-03-22T03:18:47.230Z,78.47
2019-03-22T03:21:17.371Z,69.93
2019-03-22T03:23:47.567Z,71.63
2019-03-22T03:26:17.750Z,67.87
2019-03-22T03:28:48.864Z,67.60
2019-03-22T03:31:19.005Z,76.37
2019-03-22T03:33:49.186Z,64.77
2019-03-22T03:36:19.354Z,66.83
2019-03-22T03:39:01.395Z,64.77
2019-03-22T03:41:33.099Z,66.00
2019-03-22T03:44:03.571Z,69.87
2019-03-22T03:46:33.742Z,75.77
2019-03-22T03:49:04.280Z,71.60
2019-03-22T03:51:34.420Z,77.60
2019-03-22T03:54:04.755Z,73.53
2019-03-22T03:56:34.988Z,75.40
2019-03-22T03:59:05.231Z,76.27
2019-03-22T04:01:35.379Z,76.10
2019-03-22T04:04:05.694Z,79.23
2019-03-22T04:06:35.868Z,78.57
2019-03-22T04:09:08.175Z,72.53
2019-03-22T04:11:38.335Z,78.40
2019-03-22T04:14:08.554Z,76.60
2019-03-22T04:16:38.774Z,79.97
2019-03-22T04:19:08.980Z,71.83
2019-03-22T04:21:40.296Z,77.37
2019-03-22T04:24:10.450Z,76.80
2019-03-22T04:26:40.670Z,79.27
2019-03-22T04:29:10.851Z,80.40
2019-03-22T04:31:41.012Z,76.07
2019-03-22T04:34:11.195Z,76.27
2019-03-22T04:36:41.354Z,74.07
2019-03-22T04:39:11.485Z,75.50
2019-03-22T04:41:41.683Z,72.57
2019-03-22T04:44:11.836Z,75.07
2019-03-22T04:46:44.257Z,79.80
2019-03-22T04:49:16.859Z,79.70
2019-03-22T04:51:47.376Z,77.90
2019-03-22T04:54:19.686Z,77.47
2019-03-22T04:56:52.354Z,76.47
2019-03-22T04:59:23.279Z,79.97
2019-03-22T05:01:56.210Z,82.37
2019-03-22T05:04:27.049Z,84.60
2019-03-22T05:06:58.865Z,82.57
2019-03-22T05:09:31.199Z,84.83
2019-03-22T05:12:03.271Z,81.30
2019-03-22T05:14:36.092Z,87.10
2019-03-22T05:17:07.607Z,85.50
2019-03-22T05:19:41.205Z,89.60
2019-03-22T05:22:15.148Z,81.83
2019-03-22T05:24:47.838Z,80.97
2019-03-22T05:27:19.742Z,83.47
2019-03-22T05:29:52.304Z,85.40
2019-03-22T05:32:22.452Z,82.97
2019-03-22T05:34:52.684Z,85.37
2019-03-22T05:37:22.836Z,85.10
2019-03-22T05:39:52.997Z,85.47
2019-03-22T05:42:23.122Z,80.93
2019-03-22T05:44:53.281Z,88.07
2019-03-22T05:47:23.445Z,82.73
2019-03-22T05:49:53.586Z,88.20
2019-03-22T05:52:23.741Z,93.93
2019-03-22T05:54:53.927Z,93.67
2019-03-22T05:57:24.071Z,91.50
2019-03-22T05:59:54.212Z,93.10
2019-03-22T06:02:24.372Z,94.37
2019-03-22T06:04:54.506Z,98.50
2019-03-22T06:07:25.652Z,97.07
2019-03-22T06:09:55.799Z,103.20
2019-03-22T06:12:25.981Z,98.50
2019-03-22T06:14:56.138Z,99.73
2019-03-22T06:17:26.269Z,97.40
2019-03-22T06:19:56.471Z,104.83
2019-03-22T06:22:26.678Z,96.13
2019-03-22T06:24:56.840Z,102.77
2019-03-22T06:27:26.992Z,99.27
2019-03-22T06:29:57.165Z,94.93
2019-03-22T06:32:27.422Z,85.30
2019-03-22T06:34:57.558Z,85.03
2019-03-22T06:37:27.805Z,82.33
2019-03-22T06:39:57.971Z,88.97
2019-03-22T06:42:28.174Z,94.93
2019-03-22T06:44:58.323Z,91.70
2019-03-22T06:47:28.481Z,103.97
2019-03-22T06:49:59.709Z,100.47
2019-03-22T06:52:29.936Z,94.40
2019-03-22T06:55:00.138Z,95.90
2019-03-22T06:57:30.282Z,85.03
2019-03-22T07:00:06.342Z,91.33
2019-03-22T07:02:32.482Z,96.10
2019-03-22T07:05:03.889Z,87.83
2019-03-22T07:07:34.237Z,92.73
2019-03-22T07:10:05.134Z,92.63
2019-03-22T07:12:35.321Z,96.67
2019-03-22T07:15:06.372Z,89.83
2019-03-22T07:17:36.594Z,91.07
2019-03-22T07:20:07.194Z,86.80
2019-03-22T07:22:37.447Z,94.43
2019-03-22T07:25:07.669Z,88.83
2019-03-22T07:27:37.853Z,83.90
2019-03-22T07:30:18.071Z,87.00
2019-03-22T07:32:40.310Z,73.03
2019-03-22T07:35:10.635Z,76.80
2019-03-22T07:37:40.824Z,77.53
2019-03-22T07:40:11.129Z,70.07
2019-03-22T07:42:41.275Z,76.67
2019-03-22T07:45:11.662Z,75.67
2019-03-22T07:47:41.900Z,74.83
2019-03-22T07:50:12.878Z,70.63
2019-03-22T07:52:43.055Z,72.97
2019-03-22T07:55:13.207Z,74.33
2019-03-22T07:57:43.366Z,77.57
2019-03-22T08:00:14.206Z,77.20
2019-03-22T08:02:44.394Z,73.63
2019-03-22T08:05:14.682Z,65.60
2019-03-22T08:07:44.831Z,62.53
2019-03-22T08:10:15.094Z,58.37
2019-03-22T08:12:45.252Z,67.03
2019-03-22T08:15:35.429Z,65.37
2019-03-22T08:18:05.872Z,53.77
2019-03-22T08:20:38.653Z,59.57
2019-03-22T08:23:19.227Z,62.73
2019-03-22T08:25:49.639Z,64.20
2019-03-22T08:28:20.054Z,60.43
2019-03-22T08:30:50.258Z,56.90
2019-03-22T08:33:20.508Z,53.77
2019-03-22T08:35:50.811Z,56.60
2019-03-22T08:38:21.014Z,61.07
2019-03-22T08:40:51.202Z,58.17
2019-03-22T08:43:21.400Z,63.77
2019-03-22T08:45:51.598Z,55.10
2019-03-22T08:48:21.768Z,57.60
2019-03-22T08:50:51.977Z,60.00
2019-03-22T08:53:22.253Z,55.93
2019-03-22T08:55:52.445Z,54.93
2019-03-22T08:58:22.602Z,57.70
2019-03-22T09:00:57.831Z,58.43
2019-03-22T09:03:24.639Z,51.50
2019-03-22T09:05:54.797Z,53.60
2019-03-22T09:08:24.961Z,50.27
2019-03-22T09:10:55.189Z,52.97
2019-03-22T09:13:25.339Z,47.87
2019-03-22T09:15:55.497Z,49.33
2019-03-22T09:18:25.700Z,48.73
2019-03-22T09:20:56.106Z,46.03
2019-03-22T09:23:26.235Z,46.70
2019-03-22T09:25:56.433Z,48.80
2019-03-22T09:28:26.703Z,48.93
2019-03-22T09:31:09.433Z,49.40
2019-03-22T09:33:28.784Z,56.37
2019-03-22T09:35:59.290Z,54.53
2019-03-22T09:38:29.450Z,49.87
2019-03-22T09:40:59.735Z,53.20
2019-03-22T09:43:29.989Z,56.60
2019-03-22T09:46:00.454Z,54.43
2019-03-22T09:48:30.599Z,54.90
2019-03-22T09:51:00.778Z,52.50
2019-03-22T09:53:31.061Z,52.17
2019-03-22T09:56:01.309Z,51.73
2019-03-22T09:58:31.648Z,52.20
2019-03-22T10:01:01.917Z,57.70
2019-03-22T10:03:32.207Z,54.97
2019-03-22T10:06:02.365Z,57.47
2019-03-22T10:08:32.522Z,57.40
2019-03-22T10:11:02.785Z,53.57
2019-03-22T10:13:32.992Z,59.77
2019-03-22T10:16:03.272Z,59.67
2019-03-22T10:18:36.527Z,62.30
2019-03-22T10:21:05.292Z,63.07
2019-03-22T10:23:35.736Z,61.60
2019-03-22T10:26:05.950Z,62.70
2019-03-22T10:28:37.386Z,60.17
2019-03-22T10:31:07.723Z,71.33
2019-03-22T10:33:37.929Z,69.70
2019-03-22T10:36:08.185Z,69.67
2019-03-22T10:38:38.319Z,66.77
2019-03-22T10:41:08.471Z,58.80
2019-03-22T10:43:38.742Z,69.13
2019-03-22T10:46:09.021Z,67.17
2019-03-22T10:48:40.832Z,70.67
2019-03-22T10:51:11.180Z,63.27
2019-03-22T10:53:41.365Z,72.03
2019-03-22T10:56:11.623Z,67.57
2019-03-22T10:58:41.767Z,67.50
2019-03-22T11:01:11.976Z,72.17
2019-03-22T11:03:42.162Z,71.40
2019-03-22T11:06:12.403Z,72.43
2019-03-22T11:08:42.551Z,72.13
2019-03-22T11:11:12.710Z,72.23
2019-03-22T11:13:42.871Z,75.77
2019-03-22T11:16:13.017Z,70.03
2019-03-22T11:18:43.186Z,68.33
2019-03-22T11:21:13.337Z,71.00
2019-03-22T11:23:43.498Z,65.37
2019-03-22T11:26:13.647Z,70.17
2019-03-22T11:28:43.834Z,67.50
2019-03-22T11:31:14.010Z,70.90
2019-03-22T11:33:44.166Z,67.27
2019-03-22T11:36:14.324Z,60.53
2019-03-22T11:38:44.506Z,55.07
2019-03-22T11:41:14.734Z,53.53
2019-03-22T11:43:44.878Z,51.83
2019-03-22T11:46:15.160Z,54.60
2019-03-22T11:48:45.298Z,54.40
2019-03-22T11:51:15.514Z,54.77
2019-03-22T11:53:45.678Z,55.20
2019-03-22T11:56:15.879Z,55.90
2019-03-22T11:58:46.050Z,55.47
2019-03-22T12:01:20.393Z,54.47
2019-03-22T12:03:48.174Z,56.30
2019-03-22T12:06:18.430Z,53.00
2019-03-22T12:08:48.873Z,55.10
2019-03-22T12:11:20.026Z,51.13
2019-03-22T12:13:50.151Z,50.27
2019-03-22T12:16:20.335Z,52.63
2019-03-22T12:18:50.558Z,54.77
2019-03-22T12:21:20.864Z,56.67
2019-03-22T12:23:51.003Z,55.27
2019-03-22T12:26:21.191Z,49.43
2019-03-22T12:28:51.384Z,53.77
2019-03-22T12:31:21.530Z,52.27
2019-03-22T12:33:51.683Z,53.67
2019-03-22T12:36:21.912Z,53.07
2019-03-22T12:38:52.190Z,54.43
2019-03-22T12:41:22.405Z,55.13
2019-03-22T12:43:52.592Z,55.37
2019-03-22T12:46:22.799Z,55.57
2019-03-22T12:48:52.974Z,51.13
2019-03-22T12:51:23.158Z,53.17
2019-03-22T12:53:53.326Z,46.53
2019-03-22T12:56:23.517Z,42.33
2019-03-22T12:58:53.674Z,46.53
2019-03-22T13:01:23.863Z,44.07
2019-03-22T13:03:54.029Z,45.60
2019-03-22T13:06:24.230Z,42.97
2019-03-22T13:08:54.397Z,41.23
2019-03-22T13:11:24.561Z,32.23
2019-03-22T13:13:54.746Z,32.43
2019-03-22T13:16:24.909Z,35.83
2019-03-22T13:18:55.061Z,38.50
2019-03-22T13:21:25.215Z,41.60
2019-03-22T13:23:55.345Z,35.67
2019-03-22T13:26:25.541Z,38.63
2019-03-22T13:28:55.708Z,38.63
2019-03-22T13:31:25.889Z,37.70
2019-03-22T13:33:56.054Z,37.77
2019-03-22T13:36:26.227Z,41.57
2019-03-22T13:38:56.422Z,40.80
2019-03-22T13:41:26.582Z,39.83
2019-03-22T13:43:56.798Z,38.97
2019-03-22T13:46:26.966Z,37.90
2019-03-22T13:48:57.193Z,40.97
2019-03-22T13:51:27.379Z,41.47
2019-03-22T13:53:57.523Z,38.17
2019-03-22T13:56:27.688Z,41.43
2019-03-22T13:58:57.836Z,38.10
2019-03-22T14:01:28.023Z,35.60
2019-03-22T14:03:58.273Z,35.20
2019-03-22T14:06:28.546Z,33.90
2019-03-22T14:08:58.765Z,43.13
2019-03-22T14:11:28.955Z,48.10
2019-03-22T14:13:59.130Z,50.57
2019-03-22T14:16:29.319Z,53.73
2019-03-22T14:19:00.095Z,57.80
2019-03-22T14:21:31.658Z,58.60
2019-03-22T14:24:01.921Z,60.97
2019-03-22T14:26:32.106Z,63.67
2019-03-22T14:29:02.258Z,62.40
2019-03-22T14:31:32.438Z,56.27
2019-03-22T14:34:02.590Z,57.57
2019-03-22T14:36:32.840Z,59.80
2019-03-22T14:39:03.788Z,54.80
2019-03-22T14:41:33.962Z,71.30
2019-03-22T14:44:04.524Z,62.10
2019-03-22T14:46:34.948Z,67.57
2019-03-22T14:49:05.124Z,65.80
2019-03-22T14:51:35.860Z,70.40
2019-03-22T14:54:06.369Z,65.23
2019-03-22T14:56:37.685Z,71.17
2019-03-22T14:59:07.909Z,69.10
2019-03-22T15:01:38.089Z,65.20
2019-03-22T15:04:10.222Z,66.13
2019-03-22T15:06:40.095Z,69.00
2019-03-22T15:09:10.274Z,62.27
2019-03-22T15:11:40.456Z,64.77
2019-03-22T15:14:42.084Z,65.77
2019-03-22T15:17:21.006Z,66.03
2019-03-22T15:20:08.938Z,60.37
2019-03-22T15:22:57.099Z,60.73
2019-03-22T15:25:58.541Z,62.80
2019-03-22T15:28:52.333Z,54.50
2019-03-22T15:31:41.194Z,62.97
2019-03-22T15:34:29.126Z,64.40
2019-03-22T15:37:29.999Z,61.10
2019-03-22T15:40:04.258Z,64.67
2019-03-22T15:42:34.425Z,63.37
2019-03-22T15:45:06.289Z,70.87
2019-03-22T15:47:36.514Z,66.17
2019-03-22T15:50:07.922Z,64.93
2019-03-22T15:52:38.686Z,68.70
2019-03-22T15:55:09.040Z,67.13
2019-03-22T15:57:39.221Z,64.63
2019-03-22T16:00:12.650Z,64.83
2019-03-22T16:02:42.998Z,75.37
2019-03-22T16:05:13.696Z,68.43
2019-03-22T16:07:44.002Z,68.73
2019-03-22T16:10:14.548Z,73.70
2019-03-22T16:12:44.803Z,72.47
2019-03-22T16:15:16.235Z,67.23
2019-03-22T16:17:46.494Z,72.33
2019-03-22T16:20:16.730Z,63.57
2019-03-22T16:22:47.140Z,61.40
2019-03-22T16:25:17.442Z,62.97
2019-03-22T16:27:47.622Z,64.87
2019-03-22T16:30:18.010Z,68.63
2019-03-22T16:32:48.166Z,65.03
2019-03-22T16:35:18.417Z,64.70
2019-03-22T16:37:48.621Z,66.23
2019-03-22T16:40:24.154Z,63.57
2019-03-22T16:42:50.773Z,63.03
2019-03-22T16:45:38.329Z,63.80
2019-03-22T16:48:08.928Z,58.87
2019-03-22T16:50:40.127Z,60.40
2019-03-22T16:53:10.507Z,59.67
2019-03-22T16:55:40.668Z,65.93
2019-03-22T16:58:10.895Z,61.10
2019-03-22T17:00:41.217Z,62.30
2019-03-22T17:03:11.529Z,59.17
2019-03-22T17:05:41.821Z,61.40
2019-03-22T17:08:12.186Z,63.10
2019-03-22T17:10:42.606Z,63.43
2019-03-22T17:13:12.920Z,66.80
2019-03-22T17:15:43.101Z,70.90
2019-03-22T17:18:13.324Z,66.63
2019-03-22T17:20:43.497Z,60.83
2019-03-22T17:23:13.657Z,67.37
2019-03-22T17:25:44.810Z,65.80
2019-03-22T17:28:14.965Z,64.30
2019-03-22T17:30:45.145Z,69.87
2019-03-22T17:33:15.304Z,67.47
2019-03-22T17:35:45.650Z,72.57
2019-03-22T17:38:15.799Z,66.83
2019-03-22T17:40:46.328Z,64.30
2019-03-22T17:43:16.579Z,68.30
2019-03-22T17:45:46.865Z,71.63
2019-03-22T17:48:17.037Z,72.80
2019-03-22T17:50:47.192Z,69.63
2019-03-22T17:53:17.356Z,77.03
2019-03-22T17:55:47.509Z,71.63
2019-03-22T17:58:18.383Z,68.50
2019-03-22T18:00:48.802Z,74.40
2019-03-22T18:03:18.973Z,71.50
2019-03-22T18:05:49.175Z,76.33
2019-03-22T18:08:19.374Z,75.33
2019-03-22T18:10:50.605Z,77.07
2019-03-22T18:13:20.742Z,77.30
2019-03-22T18:15:50.878Z,79.37
2019-03-22T18:18:21.056Z,81.30
2019-03-22T18:20:51.189Z,82.50
2019-03-22T18:23:21.374Z,78.00
2019-03-22T18:25:51.533Z,80.27
2019-03-22T18:28:21.865Z,75.83
2019-03-22T18:30:52.070Z,78.00
2019-03-22T18:33:22.231Z,75.17
2019-03-22T18:35:52.384Z,83.47
2019-03-22T18:38:22.533Z,80.23
2019-03-22T18:40:52.690Z,72.87
2019-03-22T18:43:22.871Z,79.77
2019-03-22T18:45:53.061Z,77.63
2019-03-22T18:48:23.213Z,76.63
2019-03-22T18:50:57.019Z,83.07
2019-03-22T18:53:25.229Z,75.27
2019-03-22T18:55:55.392Z,80.33
2019-03-22T18:58:25.577Z,86.63
2019-03-22T19:00:55.737Z,81.60
2019-03-22T19:03:26.315Z,84.43
2019-03-22T19:05:56.674Z,80.47
2019-03-22T19:08:26.914Z,83.70
2019-03-22T19:10:57.130Z,76.67
2019-03-22T19:13:30.988Z,89.20
2019-03-22T19:15:59.314Z,83.20
2019-03-22T19:18:29.517Z,76.07
2019-03-22T19:20:59.769Z,81.53
2019-03-22T19:23:29.993Z,81.30
2019-03-22T19:26:00.170Z,77.03
2019-03-22T19:28:30.370Z,83.90
2019-03-22T19:31:00.552Z,80.20
2019-03-22T19:33:30.714Z,88.97
2019-03-22T19:36:00.973Z,80.87
2019-03-22T19:38:31.217Z,79.63
2019-03-22T19:41:01.415Z,78.27
2019-03-22T19:43:31.581Z,75.67
2019-03-22T19:46:01.840Z,79.27
2019-03-22T19:48:32.041Z,75.27
2019-03-22T19:51:02.258Z,77.03
2019-03-22T19:53:32.453Z,79.73
2019-03-22T19:56:02.609Z,75.53
2019-03-22T19:58:32.803Z,76.00
2019-03-22T20:01:03.246Z,82.73
2019-03-22T20:03:33.513Z,71.67
2019-03-22T20:06:03.879Z,73.53
2019-03-22T20:08:34.074Z,82.23
2019-03-22T20:11:04.477Z,78.90
2019-03-22T20:13:34.666Z,67.87
2019-03-22T20:16:04.943Z,73.50
2019-03-22T20:18:35.126Z,66.90
2019-03-22T20:21:05.469Z,69.37
2019-03-22T20:23:35.719Z,66.87
2019-03-22T20:26:06.079Z,70.97
2019-03-22T20:28:37.285Z,74.40
2019-03-22T20:31:07.551Z,73.90
2019-03-22T20:33:37.819Z,72.60
2019-03-22T20:36:08.118Z,70.43
2019-03-22T20:38:38.293Z,78.20
2019-03-22T20:41:08.500Z,71.53
2019-03-22T20:43:38.712Z,73.07
2019-03-22T20:46:08.954Z,73.33
2019-03-22T20:48:39.164Z,70.47
2019-03-22T20:51:09.378Z,73.47
2019-03-22T20:53:39.522Z,67.60
2019-03-22T20:56:09.687Z,70.70
2019-03-22T20:58:39.918Z,70.23
2019-03-22T21:01:10.096Z,63.37
2019-03-22T21:03:40.250Z,68.50
2019-03-22T21:06:10.440Z,65.00
2019-03-22T21:08:40.643Z,62.40
2019-03-22T21:11:10.894Z,67.93
2019-03-22T21:13:41.078Z,68.27
2019-03-22T21:16:11.361Z,72.37
2019-03-22T21:18:41.790Z,62.20
2019-03-22T21:21:11.987Z,68.07
2019-03-22T21:23:42.245Z,63.63
2019-03-22T21:26:12.431Z,60.90
2019-03-22T21:28:42.594Z,65.20
2019-03-22T21:31:12.867Z,59.87
2019-03-22T21:33:43.074Z,57.27
2019-03-22T21:36:13.226Z,60.77
2019-03-22T21:38:43.562Z,57.80
2019-03-22T21:41:14.030Z,51.30
2019-03-22T21:43:44.830Z,51.13
2019-03-22T21:46:15.414Z,53.33
2019-03-22T21:48:46.207Z,52.13
2019-03-22T21:51:17.040Z,53.93
2019-03-22T21:53:47.970Z,51.87
2019-03-22T21:56:18.434Z,51.40
2019-03-22T21:58:49.710Z,52.17
2019-03-22T22:01:20.109Z,53.23
2019-03-22T22:03:50.262Z,48.93
2019-03-22T22:06:20.519Z,49.93
2019-03-22T22:08:50.773Z,49.00
2019-03-22T22:11:21.017Z,47.33
2019-03-22T22:13:51.162Z,49.90
2019-03-22T22:16:21.395Z,50.23
2019-03-22T22:18:51.602Z,48.30
2019-03-22T22:21:21.787Z,46.77
2019-03-22T22:23:51.929Z,47.73
2019-03-22T22:26:22.162Z,54.07
2019-03-22T22:28:52.321Z,46.20
2019-03-22T22:31:22.461Z,48.67
2019-03-22T22:33:52.614Z,51.77
2019-03-22T22:36:22.757Z,50.87
2019-03-22T22:38:52.905Z,54.63
2019-03-22T22:41:23.079Z,47.07
2019-03-22T22:43:53.226Z,47.43
2019-03-22T22:46:23.384Z,48.60
2019-03-22T22:48:53.510Z,48.20
2019-03-22T22:51:23.733Z,44.23
2019-03-22T22:53:53.889Z,46.87
2019-03-22T22:56:24.026Z,46.77
2019-03-22T22:58:54.197Z,48.80
2019-03-22T23:01:24.443Z,47.00
2019-03-22T23:03:54.568Z,51.57
2019-03-22T23:06:24.736Z,48.40
2019-03-22T23:08:54.936Z,48.03
2019-03-22T23:11:25.157Z,51.00
2019-03-22T23:13:55.295Z,52.40
2019-03-22T23:16:25.435Z,49.90
2019-03-22T23:18:55.619Z,50.10
2019-03-22T23:21:25.809Z,53.03
2019-03-22T23:23:55.955Z,51.67
2019-03-22T23:26:26.106Z,55.20
2019-03-22T23:28:56.250Z,48.73
2019-03-22T23:31:26.428Z,54.80
2019-03-22T23:33:56.577Z,49.93
2019-03-22T23:36:26.716Z,50.43
2019-03-22T23:38:56.857Z,55.00
2019-03-22T23:41:27.054Z,49.17
2019-03-22T23:43:58.563Z,50.43
2019-03-22T23:46:28.762Z,51.33
2019-03-22T23:48:59.841Z,49.77
2019-03-22T23:51:30.068Z,49.03
2019-03-22T23:54:00.293Z,51.63
2019-03-22T23:56:30.425Z,51.00
2019-03-22T23:59:00.557Z,51.60
